sensor_id;sensor_type;location;lat;lon;timestamp;pressure;altitude;pressure_sealevel;temperature;humidity
74834;BME280;63361;52.384;20.930;2023-03-14T00:01:53;98984.09;;;9.57;81.54
74834;BME280;63361;52.384;20.930;2023-03-14T00:04:18;98988.59;;;9.47;81.85
74834;BME280;63361;52.384;20.930;2023-03-14T00:06:44;98983.22;;;9.47;82.58
74834;BME280;63361;52.384;20.930;2023-03-14T00:09:12;99002.44;;;9.55;81.23
74834;BME280;63361;52.384;20.930;2023-03-14T00:11:37;98996.69;;;9.47;81.55
74834;BME280;63361;52.384;20.930;2023-03-14T00:14:02;98969.03;;;9.33;81.61
74834;BME280;63361;52.384;20.930;2023-03-14T00:16:28;98956.91;;;9.22;81.77
74834;BME280;63361;52.384;20.930;2023-03-14T00:18:53;98988.94;;;9.46;81.85
74834;BME280;63361;52.384;20.930;2023-03-14T00:21:18;98965.91;;;9.40;81.75
74834;BME280;63361;52.384;20.930;2023-03-14T00:23:44;98964.84;;;9.49;80.86
74834;BME280;63361;52.384;20.930;2023-03-14T00:26:15;98990.19;;;9.48;80.93
74834;BME280;63361;52.384;20.930;2023-03-14T00:28:41;98988.38;;;9.35;81.11
74834;BME280;63361;52.384;20.930;2023-03-14T00:31:09;98969.72;;;9.16;81.16
74834;BME280;63361;52.384;20.930;2023-03-14T00:33:35;98992.84;;;9.40;80.86
74834;BME280;63361;52.384;20.930;2023-03-14T00:36:07;98981.09;;;9.36;80.70
74834;BME280;63361;52.384;20.930;2023-03-14T00:38:34;98969.97;;;9.29;80.29
74834;BME280;63361;52.384;20.930;2023-03-14T00:41:03;98956.06;;;9.35;79.85
74834;BME280;63361;52.384;20.930;2023-03-14T00:43:28;98965.19;;;9.26;80.38
74834;BME280;63361;52.384;20.930;2023-03-14T00:45:53;98956.66;;;9.32;80.77
74834;BME280;63361;52.384;20.930;2023-03-14T00:48:19;98967.13;;;9.34;80.75
74834;BME280;63361;52.384;20.930;2023-03-14T00:50:45;98966.28;;;9.25;81.54
74834;BME280;63361;52.384;20.930;2023-03-14T00:53:11;98928.28;;;9.26;80.68
74834;BME280;63361;52.384;20.930;2023-03-14T00:55:41;98959.13;;;9.42;80.53
74834;BME280;63361;52.384;20.930;2023-03-14T00:58:08;98955.56;;;9.33;80.99
74834;BME280;63361;52.384;20.930;2023-03-14T01:00:33;98943.19;;;9.32;80.65
74834;BME280;63361;52.384;20.930;2023-03-14T01:02:59;98934.38;;;9.18;80.58
74834;BME280;63361;52.384;20.930;2023-03-14T01:05:24;98914.03;;;9.03;80.44
74834;BME280;63361;52.384;20.930;2023-03-14T01:07:50;98941.03;;;9.12;81.16
74834;BME280;63361;52.384;20.930;2023-03-14T01:10:15;98947.66;;;8.92;81.86
74834;BME280;63361;52.384;20.930;2023-03-14T01:12:41;98934.91;;;8.62;82.51
74834;BME280;63361;52.384;20.930;2023-03-14T01:15:07;98963.84;;;8.78;82.11
74834;BME280;63361;52.384;20.930;2023-03-14T01:17:32;98959.81;;;8.67;83.04
74834;BME280;63361;52.384;20.930;2023-03-14T01:19:59;98925.06;;;8.43;83.11
74834;BME280;63361;52.384;20.930;2023-03-14T01:22:24;98940.22;;;8.53;83.00
74834;BME280;63361;52.384;20.930;2023-03-14T01:24:49;98918.56;;;8.58;82.69
74834;BME280;63361;52.384;20.930;2023-03-14T01:27:15;98949.22;;;8.71;82.32
74834;BME280;63361;52.384;20.930;2023-03-14T01:29:40;98934.03;;;8.53;82.88
74834;BME280;63361;52.384;20.930;2023-03-14T01:32:05;98910.84;;;8.29;83.70
74834;BME280;63361;52.384;20.930;2023-03-14T01:34:31;98934.22;;;8.29;84.15
74834;BME280;63361;52.384;20.930;2023-03-14T01:36:56;98933.06;;;8.21;83.99
74834;BME280;63361;52.384;20.930;2023-03-14T01:39:21;98919.69;;;8.30;83.91
74834;BME280;63361;52.384;20.930;2023-03-14T01:41:47;98934.84;;;8.12;84.79
74834;BME280;63361;52.384;20.930;2023-03-14T01:44:12;98935.25;;;8.19;84.52
74834;BME280;63361;52.384;20.930;2023-03-14T01:46:45;98935.75;;;8.35;83.53
74834;BME280;63361;52.384;20.930;2023-03-14T01:49:37;98944.19;;;8.01;86.11
74834;BME280;63361;52.384;20.930;2023-03-14T01:52:12;98934.16;;;8.06;84.77
74834;BME280;63361;52.384;20.930;2023-03-14T01:54:47;98924.69;;;7.82;86.30
74834;BME280;63361;52.384;20.930;2023-03-14T01:57:37;98933.47;;;7.87;86.09
74834;BME280;63361;52.384;20.930;2023-03-14T02:00:05;98929.47;;;7.98;85.68
74834;BME280;63361;52.384;20.930;2023-03-14T02:02:37;98928.78;;;7.79;86.48
74834;BME280;63361;52.384;20.930;2023-03-14T02:05:05;98927.09;;;7.83;85.92
74834;BME280;63361;52.384;20.930;2023-03-14T02:07:46;98913.56;;;7.74;86.62
74834;BME280;63361;52.384;20.930;2023-03-14T02:10:14;98902.09;;;7.69;86.38
74834;BME280;63361;52.384;20.930;2023-03-14T02:12:40;98892.44;;;7.40;87.35
74834;BME280;63361;52.384;20.930;2023-03-14T02:15:06;98874.53;;;7.50;86.67
74834;BME280;63361;52.384;20.930;2023-03-14T02:17:32;98890.78;;;7.58;86.79
74834;BME280;63361;52.384;20.930;2023-03-14T02:22:45;98888.88;;;7.45;87.77
74834;BME280;63361;52.384;20.930;2023-03-14T02:25:20;98896.81;;;7.50;87.05
74834;BME280;63361;52.384;20.930;2023-03-14T02:27:49;98882.63;;;7.63;86.73
74834;BME280;63361;52.384;20.930;2023-03-14T02:30:18;98873.16;;;7.52;86.43
74834;BME280;63361;52.384;20.930;2023-03-14T02:32:46;98859.63;;;7.44;86.70
74834;BME280;63361;52.384;20.930;2023-03-14T02:35:16;98867.91;;;7.61;85.76
74834;BME280;63361;52.384;20.930;2023-03-14T02:37:57;98867.50;;;7.67;85.49
74834;BME280;63361;52.384;20.930;2023-03-14T02:40:24;98852.97;;;7.41;86.58
74834;BME280;63361;52.384;20.930;2023-03-14T02:42:49;98847.31;;;7.56;85.80
74834;BME280;63361;52.384;20.930;2023-03-14T02:47:43;98838.84;;;7.76;84.70
74834;BME280;63361;52.384;20.930;2023-03-14T02:50:15;98845.72;;;7.55;86.25
74834;BME280;63361;52.384;20.930;2023-03-14T02:52:42;98856.34;;;7.47;85.87
74834;BME280;63361;52.384;20.930;2023-03-14T02:55:07;98856.34;;;7.33;86.96
74834;BME280;63361;52.384;20.930;2023-03-14T02:57:33;98850.94;;;7.19;86.95
74834;BME280;63361;52.384;20.930;2023-03-14T02:59:59;98857.53;;;7.27;87.55
74834;BME280;63361;52.384;20.930;2023-03-14T03:02:25;98852.03;;;7.18;87.73
74834;BME280;63361;52.384;20.930;2023-03-14T03:04:50;98830.44;;;6.96;88.21
74834;BME280;63361;52.384;20.930;2023-03-14T03:07:15;98842.78;;;7.11;87.45
74834;BME280;63361;52.384;20.930;2023-03-14T03:09:41;98840.00;;;7.02;88.18
74834;BME280;63361;52.384;20.930;2023-03-14T03:12:06;98814.72;;;7.03;87.66
74834;BME280;63361;52.384;20.930;2023-03-14T03:14:32;98847.66;;;7.22;87.15
74834;BME280;63361;52.384;20.930;2023-03-14T03:16:57;98860.00;;;7.23;86.91
74834;BME280;63361;52.384;20.930;2023-03-14T03:19:22;98843.94;;;7.04;87.45
74834;BME280;63361;52.384;20.930;2023-03-14T03:21:48;98847.97;;;6.88;88.14
74834;BME280;63361;52.384;20.930;2023-03-14T03:24:13;98837.06;;;6.85;88.58
74834;BME280;63361;52.384;20.930;2023-03-14T03:26:39;98818.28;;;6.52;89.53
74834;BME280;63361;52.384;20.930;2023-03-14T03:29:04;98826.31;;;6.52;89.88
74834;BME280;63361;52.384;20.930;2023-03-14T03:31:29;98809.22;;;6.48;89.67
74834;BME280;63361;52.384;20.930;2023-03-14T03:33:56;98838.25;;;6.60;90.13
74834;BME280;63361;52.384;20.930;2023-03-14T03:36:22;98829.13;;;6.61;89.33
74834;BME280;63361;52.384;20.930;2023-03-14T03:38:48;98833.78;;;6.55;89.68
74834;BME280;63361;52.384;20.930;2023-03-14T03:41:14;98823.13;;;6.31;90.63
74834;BME280;63361;52.384;20.930;2023-03-14T03:43:39;98830.44;;;6.45;90.59
74834;BME280;63361;52.384;20.930;2023-03-14T03:46:06;98842.34;;;6.39;91.21
74834;BME280;63361;52.384;20.930;2023-03-14T03:48:31;98809.31;;;6.24;90.60
74834;BME280;63361;52.384;20.930;2023-03-14T03:50:57;98828.56;;;6.26;91.20
74834;BME280;63361;52.384;20.930;2023-03-14T03:53:22;98810.13;;;6.25;90.61
74834;BME280;63361;52.384;20.930;2023-03-14T03:55:48;98839.22;;;6.50;89.34
74834;BME280;63361;52.384;20.930;2023-03-14T03:58:13;98809.66;;;6.37;89.78
74834;BME280;63361;52.384;20.930;2023-03-14T04:00:38;98792.88;;;6.31;89.65
74834;BME280;63361;52.384;20.930;2023-03-14T04:03:04;98804.22;;;6.42;89.85
74834;BME280;63361;52.384;20.930;2023-03-14T04:05:30;98818.78;;;6.35;90.27
74834;BME280;63361;52.384;20.930;2023-03-14T04:07:55;98819.31;;;6.38;89.85
74834;BME280;63361;52.384;20.930;2023-03-14T04:10:20;98807.78;;;6.18;89.88
74834;BME280;63361;52.384;20.930;2023-03-14T04:12:46;98799.75;;;6.18;89.77
74834;BME280;63361;52.384;20.930;2023-03-14T04:15:11;98833.50;;;6.38;90.17
74834;BME280;63361;52.384;20.930;2023-03-14T04:17:36;98827.97;;;6.29;89.71
74834;BME280;63361;52.384;20.930;2023-03-14T04:20:02;98821.31;;;6.27;90.07
74834;BME280;63361;52.384;20.930;2023-03-14T04:22:28;98819.44;;;6.27;89.24
74834;BME280;63361;52.384;20.930;2023-03-14T04:24:53;98804.72;;;6.44;88.64
74834;BME280;63361;52.384;20.930;2023-03-14T04:27:18;98821.88;;;6.43;88.94
74834;BME280;63361;52.384;20.930;2023-03-14T04:29:44;98782.16;;;6.31;88.45
74834;BME280;63361;52.384;20.930;2023-03-14T04:32:09;98805.53;;;6.77;86.55
74834;BME280;63361;52.384;20.930;2023-03-14T04:34:35;98794.03;;;6.57;86.91
74834;BME280;63361;52.384;20.930;2023-03-14T04:37:00;98790.09;;;6.55;86.96
74834;BME280;63361;52.384;20.930;2023-03-14T04:39:25;98789.00;;;6.56;86.30
74834;BME280;63361;52.384;20.930;2023-03-14T04:41:51;98802.97;;;6.72;86.75
74834;BME280;63361;52.384;20.930;2023-03-14T04:44:17;98793.09;;;6.67;87.55
74834;BME280;63361;52.384;20.930;2023-03-14T04:46:42;98798.50;;;6.81;86.36
74834;BME280;63361;52.384;20.930;2023-03-14T04:49:08;98802.00;;;6.95;85.63
74834;BME280;63361;52.384;20.930;2023-03-14T04:51:33;98770.38;;;6.78;85.14
74834;BME280;63361;52.384;20.930;2023-03-14T04:53:58;98771.34;;;7.01;84.35
74834;BME280;63361;52.384;20.930;2023-03-14T04:56:24;98790.00;;;7.06;84.76
74834;BME280;63361;52.384;20.930;2023-03-14T04:58:49;98780.75;;;6.98;85.46
74834;BME280;63361;52.384;20.930;2023-03-14T05:01:14;98759.69;;;6.92;85.12
74834;BME280;63361;52.384;20.930;2023-03-14T05:03:40;98766.56;;;7.12;84.64
74834;BME280;63361;52.384;20.930;2023-03-14T05:06:05;98775.41;;;7.12;85.09
74834;BME280;63361;52.384;20.930;2023-03-14T05:08:30;98760.03;;;7.18;83.58
74834;BME280;63361;52.384;20.930;2023-03-14T05:10:57;98771.72;;;7.35;83.56
74834;BME280;63361;52.384;20.930;2023-03-14T05:13:22;98778.91;;;7.40;83.07
74834;BME280;63361;52.384;20.930;2023-03-14T05:15:48;98751.97;;;7.31;82.76
74834;BME280;63361;52.384;20.930;2023-03-14T05:18:15;98763.06;;;7.52;82.51
74834;BME280;63361;52.384;20.930;2023-03-14T05:20:40;98749.34;;;7.54;82.24
74834;BME280;63361;52.384;20.930;2023-03-14T05:23:08;98760.78;;;7.59;82.04
74834;BME280;63361;52.384;20.930;2023-03-14T05:25:33;98710.19;;;7.39;81.17
74834;BME280;63361;52.384;20.930;2023-03-14T05:27:59;98744.94;;;7.71;80.81
74834;BME280;63361;52.384;20.930;2023-03-14T05:30:24;98709.88;;;7.54;80.82
74834;BME280;63361;52.384;20.930;2023-03-14T05:32:49;98731.59;;;7.80;80.46
74834;BME280;63361;52.384;20.930;2023-03-14T05:35:15;98738.59;;;8.03;79.34
74834;BME280;63361;52.384;20.930;2023-03-14T05:37:40;98731.22;;;8.09;79.30
74834;BME280;63361;52.384;20.930;2023-03-14T05:40:06;98731.28;;;8.18;78.80
74834;BME280;63361;52.384;20.930;2023-03-14T05:42:32;98728.34;;;8.28;78.33
74834;BME280;63361;52.384;20.930;2023-03-14T05:44:58;98722.16;;;8.27;78.25
74834;BME280;63361;52.384;20.930;2023-03-14T05:47:24;98684.31;;;8.15;77.75
74834;BME280;63361;52.384;20.930;2023-03-14T05:49:49;98709.44;;;8.33;77.99
74834;BME280;63361;52.384;20.930;2023-03-14T05:52:15;98693.34;;;8.19;78.03
74834;BME280;63361;52.384;20.930;2023-03-14T05:54:40;98714.13;;;8.50;77.32
74834;BME280;63361;52.384;20.930;2023-03-14T05:57:06;98691.13;;;8.97;75.52
74834;BME280;63361;52.384;20.930;2023-03-14T05:59:31;98675.06;;;9.48;72.80
74834;BME280;63361;52.384;20.930;2023-03-14T06:01:56;98690.44;;;8.91;74.19
74834;BME280;63361;52.384;20.930;2023-03-14T06:04:22;98696.38;;;8.71;75.21
74834;BME280;63361;52.384;20.930;2023-03-14T06:06:47;98673.72;;;8.63;75.36
74834;BME280;63361;52.384;20.930;2023-03-14T06:09:12;98669.66;;;8.74;75.60
74834;BME280;63361;52.384;20.930;2023-03-14T06:11:38;98655.06;;;8.67;75.32
74834;BME280;63361;52.384;20.930;2023-03-14T06:14:03;98664.34;;;8.92;74.60
74834;BME280;63361;52.384;20.930;2023-03-14T06:16:28;98680.19;;;9.02;74.47
74834;BME280;63361;52.384;20.930;2023-03-14T06:18:54;98643.22;;;8.68;74.40
74834;BME280;63361;52.384;20.930;2023-03-14T06:21:19;98672.50;;;8.78;75.05
74834;BME280;63361;52.384;20.930;2023-03-14T06:23:45;98644.84;;;8.46;75.23
74834;BME280;63361;52.384;20.930;2023-03-14T06:26:10;98670.94;;;8.77;75.61
74834;BME280;63361;52.384;20.930;2023-03-14T06:28:37;98685.44;;;8.98;74.04
74834;BME280;63361;52.384;20.930;2023-03-14T06:31:02;98696.78;;;9.52;73.44
74834;BME280;63361;52.384;20.930;2023-03-14T06:33:28;98667.78;;;10.09;69.71
74834;BME280;63361;52.384;20.930;2023-03-14T06:35:53;98659.25;;;9.73;70.99
74834;BME280;63361;52.384;20.930;2023-03-14T06:38:19;98674.13;;;10.13;70.25
74834;BME280;63361;52.384;20.930;2023-03-14T06:40:44;98648.00;;;10.23;69.01
74834;BME280;63361;52.384;20.930;2023-03-14T06:43:09;98676.44;;;10.67;69.08
74834;BME280;63361;52.384;20.930;2023-03-14T06:45:35;98677.31;;;11.76;65.55
74834;BME280;63361;52.384;20.930;2023-03-14T06:48:00;98654.56;;;11.27;65.04
74834;BME280;63361;52.384;20.930;2023-03-14T06:50:25;98656.88;;;10.78;67.75
74834;BME280;63361;52.384;20.930;2023-03-14T06:52:51;98661.31;;;11.62;65.33
74834;BME280;63361;52.384;20.930;2023-03-14T06:55:16;98703.66;;;12.21;63.63
74834;BME280;63361;52.384;20.930;2023-03-14T06:57:42;98668.94;;;12.68;61.59
74834;BME280;63361;52.384;20.930;2023-03-14T07:00:10;98694.25;;;12.84;60.27
74834;BME280;63361;52.384;20.930;2023-03-14T07:02:35;98691.59;;;12.18;61.67
74834;BME280;63361;52.384;20.930;2023-03-14T07:05:01;98695.50;;;11.88;63.45
74834;BME280;63361;52.384;20.930;2023-03-14T07:07:27;98704.47;;;11.80;63.63
74834;BME280;63361;52.384;20.930;2023-03-14T07:09:52;98697.53;;;12.12;62.42
74834;BME280;63361;52.384;20.930;2023-03-14T07:12:18;98705.13;;;12.18;62.45
74834;BME280;63361;52.384;20.930;2023-03-14T07:14:43;98703.47;;;12.38;61.63
74834;BME280;63361;52.384;20.930;2023-03-14T07:17:08;98693.66;;;12.21;62.67
74834;BME280;63361;52.384;20.930;2023-03-14T07:19:33;98722.66;;;12.12;63.20
74834;BME280;63361;52.384;20.930;2023-03-14T07:21:59;98713.28;;;12.10;62.82
74834;BME280;63361;52.384;20.930;2023-03-14T07:24:24;98713.13;;;11.64;64.16
74834;BME280;63361;52.384;20.930;2023-03-14T07:26:50;98687.94;;;12.35;62.59
74834;BME280;63361;52.384;20.930;2023-03-14T07:29:15;98708.31;;;13.35;59.41
74834;BME280;63361;52.384;20.930;2023-03-14T07:31:40;98667.88;;;14.50;56.29
74834;BME280;63361;52.384;20.930;2023-03-14T07:34:06;98686.09;;;15.79;50.66
74834;BME280;63361;52.384;20.930;2023-03-14T07:36:31;98670.44;;;16.30;48.80
74834;BME280;63361;52.384;20.930;2023-03-14T07:38:56;98684.72;;;17.87;44.32
74834;BME280;63361;52.384;20.930;2023-03-14T07:41:21;98685.84;;;17.33;44.18
74834;BME280;63361;52.384;20.930;2023-03-14T07:43:48;98672.47;;;17.77;43.88
74834;BME280;63361;52.384;20.930;2023-03-14T07:46:13;98681.81;;;16.36;45.41
74834;BME280;63361;52.384;20.930;2023-03-14T07:48:40;98678.47;;;15.34;48.48
74834;BME280;63361;52.384;20.930;2023-03-14T07:51:05;98678.47;;;15.85;47.70
74834;BME280;63361;52.384;20.930;2023-03-14T07:53:31;98696.97;;;14.09;50.80
74834;BME280;63361;52.384;20.930;2023-03-14T07:55:56;98687.50;;;14.03;51.46
74834;BME280;63361;52.384;20.930;2023-03-14T07:58:22;98702.63;;;14.45;51.28
74834;BME280;63361;52.384;20.930;2023-03-14T08:00:48;98678.63;;;15.57;49.03
74834;BME280;63361;52.384;20.930;2023-03-14T08:03:14;98676.03;;;16.18;46.97
74834;BME280;63361;52.384;20.930;2023-03-14T08:05:39;98680.22;;;18.05;43.31
74834;BME280;63361;52.384;20.930;2023-03-14T08:08:06;98684.50;;;20.59;37.80
74834;BME280;63361;52.384;20.930;2023-03-14T08:10:31;98689.75;;;19.37;38.97
74834;BME280;63361;52.384;20.930;2023-03-14T08:12:58;98672.31;;;17.40;43.13
74834;BME280;63361;52.384;20.930;2023-03-14T08:15:24;98679.59;;;16.41;44.54
74834;BME280;63361;52.384;20.930;2023-03-14T08:17:50;98690.81;;;16.59;45.23
74834;BME280;63361;52.384;20.930;2023-03-14T08:20:21;98694.53;;;17.16;44.29
74834;BME280;63361;52.384;20.930;2023-03-14T08:22:48;98690.66;;;17.17;44.41
74834;BME280;63361;52.384;20.930;2023-03-14T08:25:13;98685.34;;;15.98;46.77
74834;BME280;63361;52.384;20.930;2023-03-14T08:27:39;98693.25;;;15.68;47.97
74834;BME280;63361;52.384;20.930;2023-03-14T08:30:13;98683.44;;;15.63;47.73
74834;BME280;63361;52.384;20.930;2023-03-14T08:32:39;98688.25;;;16.47;46.63
74834;BME280;63361;52.384;20.930;2023-03-14T08:35:05;98697.16;;;16.44;47.02
74834;BME280;63361;52.384;20.930;2023-03-14T08:37:32;98684.75;;;15.69;48.19
74834;BME280;63361;52.384;20.930;2023-03-14T08:39:57;98688.47;;;14.98;49.33
74834;BME280;63361;52.384;20.930;2023-03-14T08:42:22;98684.59;;;14.52;50.13
74834;BME280;63361;52.384;20.930;2023-03-14T08:44:48;98706.00;;;15.17;49.89
74834;BME280;63361;52.384;20.930;2023-03-14T08:47:13;98687.59;;;15.57;48.62
74834;BME280;63361;52.384;20.930;2023-03-14T08:49:38;98676.75;;;16.15;47.75
74834;BME280;63361;52.384;20.930;2023-03-14T08:52:04;98685.41;;;16.21;46.37
74834;BME280;63361;52.384;20.930;2023-03-14T08:54:30;98686.13;;;15.98;47.66
74834;BME280;63361;52.384;20.930;2023-03-14T08:56:56;98676.88;;;16.22;47.23
74834;BME280;63361;52.384;20.930;2023-03-14T08:59:22;98676.88;;;16.22;47.64
74834;BME280;63361;52.384;20.930;2023-03-14T09:01:47;98693.78;;;16.12;47.68
74834;BME280;63361;52.384;20.930;2023-03-14T09:04:12;98674.78;;;15.58;49.03
74834;BME280;63361;52.384;20.930;2023-03-14T09:06:38;98678.47;;;15.85;48.12
74834;BME280;63361;52.384;20.930;2023-03-14T09:09:04;98669.28;;;16.31;46.73
74834;BME280;63361;52.384;20.930;2023-03-14T09:11:30;98656.94;;;17.02;45.39
74834;BME280;63361;52.384;20.930;2023-03-14T09:13:55;98656.38;;;17.99;42.36
74834;BME280;63361;52.384;20.930;2023-03-14T09:16:20;98644.28;;;18.70;40.87
74834;BME280;63361;52.384;20.930;2023-03-14T09:18:46;98659.59;;;18.78;42.59
74834;BME280;63361;52.384;20.930;2023-03-14T09:21:11;98654.38;;;19.07;40.78
74834;BME280;63361;52.384;20.930;2023-03-14T09:23:36;98658.84;;;17.51;43.94
74834;BME280;63361;52.384;20.930;2023-03-14T09:26:02;98653.47;;;17.05;45.62
74834;BME280;63361;52.384;20.930;2023-03-14T09:28:27;98656.25;;;17.62;43.86
74834;BME280;63361;52.384;20.930;2023-03-14T09:30:53;98664.53;;;17.16;44.91
74834;BME280;63361;52.384;20.930;2023-03-14T09:33:20;98651.75;;;16.94;45.02
74834;BME280;63361;52.384;20.930;2023-03-14T09:35:45;98655.13;;;16.64;46.32
74834;BME280;63361;52.384;20.930;2023-03-14T09:38:10;98652.63;;;16.36;46.59
74834;BME280;63361;52.384;20.930;2023-03-14T09:40:37;98660.41;;;15.96;47.43
74834;BME280;63361;52.384;20.930;2023-03-14T09:43:03;98628.56;;;15.42;49.08
74834;BME280;63361;52.384;20.930;2023-03-14T09:45:37;98646.78;;;15.57;48.87
74834;BME280;63361;52.384;20.930;2023-03-14T09:48:06;98635.81;;;15.03;50.18
74834;BME280;63361;52.384;20.930;2023-03-14T09:50:42;98637.56;;;15.11;49.17
74834;BME280;63361;52.384;20.930;2023-03-14T09:53:14;98628.66;;;15.30;49.65
74834;BME280;63361;52.384;20.930;2023-03-14T09:55:42;98615.38;;;15.79;48.91
74834;BME280;63361;52.384;20.930;2023-03-14T09:58:14;98630.91;;;15.78;48.44
74834;BME280;63361;52.384;20.930;2023-03-14T10:00:41;98609.56;;;16.19;48.48
74834;BME280;63361;52.384;20.930;2023-03-14T10:03:25;98611.94;;;16.66;45.99
74834;BME280;63361;52.384;20.930;2023-03-14T10:05:51;98606.09;;;16.22;46.90
74834;BME280;63361;52.384;20.930;2023-03-14T10:08:16;98590.13;;;16.89;45.39
74834;BME280;63361;52.384;20.930;2023-03-14T10:10:42;98608.56;;;17.52;44.88
74834;BME280;63361;52.384;20.930;2023-03-14T10:15:38;98585.59;;;18.20;43.05
74834;BME280;63361;52.384;20.930;2023-03-14T10:18:10;98601.09;;;18.09;43.43
74834;BME280;63361;52.384;20.930;2023-03-14T10:20:42;98605.06;;;18.15;43.23
74834;BME280;63361;52.384;20.930;2023-03-14T10:25:39;98597.78;;;17.92;43.61
74834;BME280;63361;52.384;20.930;2023-03-14T10:28:05;98587.84;;;18.48;43.00
74834;BME280;63361;52.384;20.930;2023-03-14T10:30:47;98600.84;;;17.87;44.13
74834;BME280;63361;52.384;20.930;2023-03-14T10:35:44;98599.28;;;19.77;40.88
74834;BME280;63361;52.384;20.930;2023-03-14T10:38:16;98610.19;;;19.63;40.78
74834;BME280;63361;52.384;20.930;2023-03-14T10:40:47;98615.81;;;18.75;42.72
74834;BME280;63361;52.384;20.930;2023-03-14T10:43:17;98606.47;;;18.79;42.54
74834;BME280;63361;52.384;20.930;2023-03-14T10:45:51;98590.13;;;20.78;38.61
74834;BME280;63361;52.384;20.930;2023-03-14T10:50:55;98584.03;;;23.41;33.26
74834;BME280;63361;52.384;20.930;2023-03-14T10:53:20;98575.28;;;22.67;33.75
74834;BME280;63361;52.384;20.930;2023-03-14T10:55:46;98564.28;;;22.64;34.04
74834;BME280;63361;52.384;20.930;2023-03-14T10:58:19;98571.34;;;22.68;33.54
74834;BME280;63361;52.384;20.930;2023-03-14T11:00:51;98564.16;;;21.46;35.76
74834;BME280;63361;52.384;20.930;2023-03-14T11:03:19;98562.19;;;19.97;38.65
74834;BME280;63361;52.384;20.930;2023-03-14T11:05:56;98575.41;;;18.57;42.05
74834;BME280;63361;52.384;20.930;2023-03-14T11:11:02;98565.97;;;17.70;43.91
74834;BME280;63361;52.384;20.930;2023-03-14T11:13:41;98568.09;;;17.28;45.34
74834;BME280;63361;52.384;20.930;2023-03-14T11:16:19;98563.63;;;17.72;44.53
74834;BME280;63361;52.384;20.930;2023-03-14T11:18:49;98571.50;;;17.77;44.85
74834;BME280;63361;52.384;20.930;2023-03-14T11:24:49;98597.69;;;16.53;47.09
74834;BME280;63361;52.384;20.930;2023-03-14T11:33:12;98606.72;;;15.38;50.48
74834;BME280;63361;52.384;20.930;2023-03-14T11:35:47;98602.50;;;15.41;50.56
74834;BME280;63361;52.384;20.930;2023-03-14T11:40:50;98572.03;;;15.16;51.52
74834;BME280;63361;52.384;20.930;2023-03-14T11:43:28;98585.38;;;15.56;50.52
74834;BME280;63361;52.384;20.930;2023-03-14T11:45:58;98574.22;;;16.45;48.26
74834;BME280;63361;52.384;20.930;2023-03-14T11:48:36;98571.16;;;17.22;46.03
74834;BME280;63361;52.384;20.930;2023-03-14T11:51:08;98569.09;;;17.16;46.38
74834;BME280;63361;52.384;20.930;2023-03-14T11:53:43;98573.00;;;16.66;47.68
74834;BME280;63361;52.384;20.930;2023-03-14T11:56:16;98577.59;;;16.39;48.45
74834;BME280;63361;52.384;20.930;2023-03-14T11:58:51;98587.13;;;16.48;48.34
74834;BME280;63361;52.384;20.930;2023-03-14T12:01:20;98581.63;;;16.03;48.71
74834;BME280;63361;52.384;20.930;2023-03-14T12:09:08;98598.84;;;16.30;49.04
74834;BME280;63361;52.384;20.930;2023-03-14T12:14:22;98594.88;;;16.92;48.87
74834;BME280;63361;52.384;20.930;2023-03-14T12:16:49;98573.41;;;17.17;47.65
74834;BME280;63361;52.384;20.930;2023-03-14T12:21:54;98590.44;;;16.38;49.32
74834;BME280;63361;52.384;20.930;2023-03-14T12:24:33;98588.59;;;16.00;50.10
74834;BME280;63361;52.384;20.930;2023-03-14T12:27:01;98587.09;;;15.64;50.26
74834;BME280;63361;52.384;20.930;2023-03-14T12:29:28;98598.81;;;14.98;52.81
74834;BME280;63361;52.384;20.930;2023-03-14T12:34:39;98604.94;;;14.32;55.03
74834;BME280;63361;52.384;20.930;2023-03-14T12:37:14;98611.31;;;14.24;55.55
74834;BME280;63361;52.384;20.930;2023-03-14T12:39:58;98593.75;;;14.06;56.69
74834;BME280;63361;52.384;20.930;2023-03-14T12:45:29;98608.25;;;13.42;61.54
74834;BME280;63361;52.384;20.930;2023-03-14T12:51:01;98603.75;;;12.85;67.69
74834;BME280;63361;52.384;20.930;2023-03-14T12:56:26;98640.81;;;12.03;79.30
74834;BME280;63361;52.384;20.930;2023-03-14T13:01:32;98652.91;;;11.35;81.90
74834;BME280;63361;52.384;20.930;2023-03-14T13:04:03;98651.78;;;11.15;85.54
74834;BME280;63361;52.384;20.930;2023-03-14T13:06:46;98647.16;;;10.86;89.59
74834;BME280;63361;52.384;20.930;2023-03-14T13:09:54;98645.25;;;10.86;86.10
74834;BME280;63361;52.384;20.930;2023-03-14T13:12:26;98653.59;;;10.64;87.91
74834;BME280;63361;52.384;20.930;2023-03-14T13:14:53;98638.41;;;10.42;91.00
74834;BME280;63361;52.384;20.930;2023-03-14T13:17:26;98646.03;;;10.49;92.87
74834;BME280;63361;52.384;20.930;2023-03-14T13:19:55;98644.44;;;10.39;97.31
74834;BME280;63361;52.384;20.930;2023-03-14T13:22:27;98627.97;;;10.32;100.00
74834;BME280;63361;52.384;20.930;2023-03-14T13:25:05;98643.66;;;10.47;100.00
74834;BME280;63361;52.384;20.930;2023-03-14T13:27:33;98642.06;;;10.46;100.00
74834;BME280;63361;52.384;20.930;2023-03-14T13:30:05;98642.75;;;10.35;100.00
74834;BME280;63361;52.384;20.930;2023-03-14T13:32:41;98641.16;;;10.25;100.00
74834;BME280;63361;52.384;20.930;2023-03-14T13:35:25;98634.34;;;10.10;100.00
74834;BME280;63361;52.384;20.930;2023-03-14T13:37:57;98652.56;;;10.13;100.00
74834;BME280;63361;52.384;20.930;2023-03-14T13:40:33;98656.22;;;10.26;100.00
74834;BME280;63361;52.384;20.930;2023-03-14T13:43:04;98655.59;;;10.38;100.00
74834;BME280;63361;52.384;20.930;2023-03-14T13:45:30;98640.63;;;10.40;100.00
74834;BME280;63361;52.384;20.930;2023-03-14T13:47:55;98643.94;;;10.54;100.00
74834;BME280;63361;52.384;20.930;2023-03-14T13:50:21;98636.19;;;10.53;100.00
74834;BME280;63361;52.384;20.930;2023-03-14T13:52:46;98643.28;;;10.66;100.00